Saint-Sauveur, Quebec

7:47 AM EDT on August 26, 2016 (GMT -0400)
Saint-Sauveur | | Change Station

Elev 920 ft 45.88 °N, 74.19 °W | Updated 7 minutes ago

Mist
Mist
68.4 °F
Feels Like 68.4 °F
N
1.7
Wind Variable Wind from South

Today
High -- | Low -- °F
--% Chance of Precip.
Yesterday
High -- | Low -- °F
Precip. -- in
Pressure 29.90 in
Visibility 1.0 miles
Clouds
Dew Point 68 °F
Humidity 99%
Rainfall 0.00 in
Snow Depth Not available.
6:10 AM 7:45 PM
Waning Crescent, 35% visible
SPECI CYMX 261137Z 23004KT 200V260 1SM R11/4500VP6000FT/U BR VV002 21/21 A2990 RMK FG8 TWR VIS 1/8 SLP125 DENSITY ALT 1000FT
Pressure 29.90 in
Visibility 1.0 miles
Clouds
Dew Point 68 °F
Humidity 99%
Rainfall 0.00 in
Snow Depth Not available.
6:10 AM 7:45 PM
Waning Crescent, 35% visible
SPECI CYMX 261137Z 23004KT 200V260 1SM R11/4500VP6000FT/U BR VV002 21/21 A2990 RMK FG8 TWR VIS 1/8 SLP125 DENSITY ALT 1000FT

10-Day Weather Forecast

Almanac

Astronomy

Aug. 26, 2016 Rise Set
Actual Time
Civil Twilight
Nautical Twilight
Astronomical Twilight
Moon
Length of Visible Light
Length of Day
Tomorrow will be .
, % of the Moon is Illuminated

Today's Extremes

Country Highs Country Lows

Community

WunderPhotos

Upload Photos

1,935,071 photos uploaded!

WunderBlog® & News

Nearby

Air Quality

  Air Quality AQ Index Pollutant
Not available.

Snow Depth

Station Depth Elevation

Earthquake Activity

City Distance Mag. Time & Date
Minimum magnitude displayed is 2.5.

Coastal Water Temperatures

Place Temperature

Stations

Nearby Weather Stations

Station Location Temp. Windchill Dew Point Humidity Wind Precip. Elev Updated Type
                   

Watches & Warnings

There are currently no watches in effect.